Lake Placid, Florida
Current Conditions -  °F | °C
As of 4:35 PM on Wednesday 17 Dec 2014 (Local Time) from KOBE Reporting Station
Scattered Clouds Scattered Clouds  
Wind Chill: 72°   Ceiling: Unl
Heat Index: 72°   Visibility: 10mi
Dew Point: 61°   Wind: 3mph
Humidity: 69%   Direction: 150°SSE
Pressure: 30.1"   Gusts: NA
Location:  27.3°N, 81.37°W
Report Text: KOBE 172135Z AUTO 15003KT 10SM SCT039 SCT050 22/16 A3010 RMK AO2
Loading
Personal Weather Stations






























Interactive Weather Map New forecast layout! Learn more

10-Day Weather Forecast

Advertisements
Track Severe Weather on mobile